createdAt,value
2022-10-20T00:02:31.481Z,3.70
2022-10-20T00:05:51.921Z,4.47
2022-10-20T00:08:18.758Z,6.53
2022-10-20T00:10:55.974Z,6.35
2022-10-20T00:13:24.571Z,3.80
2022-10-20T00:16:12.202Z,4.70
2022-10-20T00:18:39.345Z,5.45
2022-10-20T01:14:04.582Z,5.85
2022-10-20T05:34:56.759Z,10.40
2022-10-20T05:56:13.744Z,11.23
2022-10-20T06:04:03.743Z,10.48
2022-10-20T06:06:31.293Z,13.60
2022-10-20T06:09:35.541Z,16.25
2022-10-20T06:12:30.248Z,9.52
2022-10-20T06:15:09.273Z,13.43
2022-10-20T06:20:11.204Z,10.63
2022-10-20T06:22:37.930Z,16.35
2022-10-20T06:25:05.214Z,10.73
2022-10-20T06:27:31.829Z,10.40
2022-10-20T06:30:01.451Z,15.32
2022-10-20T06:32:27.971Z,11.55
2022-10-20T06:34:54.501Z,12.68
2022-10-20T06:37:21.088Z,9.18
2022-10-20T07:09:39.846Z,8.23
2022-10-20T09:20:44.762Z,5.97
2022-10-20T09:23:39.409Z,6.95
2022-10-20T09:26:02.988Z,5.45
2022-10-20T09:28:35.021Z,6.95
2022-10-20T09:31:24.349Z,7.90
2022-10-20T09:33:50.990Z,6.53
2022-10-20T09:36:20.415Z,7.95
2022-10-20T09:38:49.966Z,8.35
2022-10-20T09:41:31.880Z,5.32
2022-10-20T09:44:23.656Z,8.13
2022-10-20T10:57:50.361Z,3.72
2022-10-20T14:12:21.444Z,4.82
2022-10-20T14:14:48.097Z,3.12
2022-10-20T14:17:23.501Z,3.78
2022-10-20T14:19:50.927Z,6.03
2022-10-20T14:22:23.121Z,5.47
2022-10-20T14:24:53.132Z,7.32
2022-10-20T14:31:30.239Z,7.53
2022-10-20T14:33:57.167Z,6.35
2022-10-20T14:36:29.130Z,2.90
2022-10-20T14:39:00.914Z,3.97
2022-10-20T14:41:37.673Z,4.65
2022-10-20T14:44:12.184Z,5.50
2022-10-20T14:46:47.831Z,7.75
2022-10-20T14:49:22.765Z,3.33
2022-10-20T14:51:58.319Z,5.20
2022-10-20T15:03:14.669Z,5.18
2022-10-20T15:30:19.005Z,5.45
2022-10-20T15:32:46.045Z,8.57
2022-10-20T15:48:12.002Z,6.55
2022-10-20T15:50:47.592Z,8.07
2022-10-20T16:04:19.861Z,63.83
2022-10-20T16:06:48.122Z,64.40
2022-10-20T16:09:16.127Z,69.85
2022-10-20T16:11:43.687Z,62.72
2022-10-20T16:14:10.841Z,52.20
2022-10-20T16:16:37.448Z,39.03
2022-10-20T16:19:04.297Z,40.00
2022-10-20T16:21:31.318Z,35.75
2022-10-20T16:23:58.387Z,32.08
2022-10-20T16:26:25.051Z,25.62
2022-10-20T16:28:51.690Z,25.67
2022-10-20T16:31:19.520Z,22.87
2022-10-20T16:33:47.028Z,25.62
2022-10-20T17:03:14.944Z,48.13
2022-10-20T17:05:45.229Z,44.45
2022-10-20T17:10:47.652Z,47.13
2022-10-20T17:13:14.282Z,43.10
2022-10-20T17:15:40.815Z,38.90
2022-10-20T17:18:07.374Z,37.05
2022-10-20T17:20:38.105Z,34.90
2022-10-20T17:25:39.925Z,34.70
2022-10-20T17:31:02.256Z,40.72
2022-10-20T17:33:30.724Z,38.38
2022-10-20T17:41:12.878Z,46.70
2022-10-20T17:43:39.802Z,48.15
2022-10-20T17:46:08.964Z,48.97
2022-10-20T17:51:21.340Z,45.53
2022-10-20T17:53:50.139Z,42.40
2022-10-20T17:59:06.709Z,54.50
2022-10-20T18:01:36.470Z,60.97
2022-10-20T18:04:09.028Z,57.67
2022-10-20T18:06:36.528Z,59.55
2022-10-20T18:09:21.138Z,52.58
2022-10-20T18:11:51.226Z,48.47
2022-10-20T18:14:18.131Z,50.12
2022-10-20T18:19:19.933Z,49.97
2022-10-20T18:21:47.150Z,43.60
2022-10-20T18:24:15.657Z,47.60
2022-10-20T18:46:05.645Z,38.90
2022-10-20T18:48:34.393Z,40.20
2022-10-20T18:51:02.104Z,41.10
2022-10-20T18:58:40.897Z,34.55
2022-10-20T19:01:13.360Z,33.25
2022-10-20T19:03:41.653Z,32.33
2022-10-20T19:06:12.224Z,34.03
2022-10-20T19:17:01.934Z,30.95
2022-10-20T19:39:12.313Z,25.05
2022-10-20T19:41:39.537Z,27.58
2022-10-20T19:44:06.803Z,28.65
2022-10-20T19:46:33.753Z,24.58
2022-10-20T19:49:00.349Z,23.42
2022-10-20T19:51:26.954Z,22.33
2022-10-20T19:53:55.833Z,22.05
2022-10-20T20:39:48.117Z,18.30
2022-10-20T21:03:47.924Z,19.12
2022-10-20T21:06:18.145Z,19.40
2022-10-20T21:08:47.644Z,19.40
2022-10-20T21:11:19.590Z,23.62
2022-10-20T21:13:51.206Z,20.58
2022-10-20T21:16:29.516Z,18.92
2022-10-20T21:19:10.254Z,19.27
2022-10-20T21:21:52.889Z,22.92
2022-10-20T21:24:19.545Z,22.58
2022-10-20T21:26:48.915Z,21.20
2022-10-20T21:29:17.049Z,23.42
2022-10-20T21:37:52.799Z,20.48
2022-10-20T23:48:18.068Z,14.20
2022-10-20T23:50:44.768Z,17.20
2022-10-20T23:53:11.472Z,14.77
